sensor_id;sensor_type;location;lat;lon;timestamp;pressure;altitude;pressure_sealevel;temperature;humidity
2549;BME280;1284;53.520;10.248;2023-08-17T00:02:23;101474.94;;;22.15;80.52
2549;BME280;1284;53.520;10.248;2023-08-17T00:04:49;101479.59;;;22.18;80.05
2549;BME280;1284;53.520;10.248;2023-08-17T00:07:14;101477.25;;;22.16;80.87
2549;BME280;1284;53.520;10.248;2023-08-17T00:09:40;101470.66;;;22.14;80.78
2549;BME280;1284;53.520;10.248;2023-08-17T00:12:05;101468.63;;;22.18;80.80
2549;BME280;1284;53.520;10.248;2023-08-17T00:14:32;101477.25;;;22.16;80.94
2549;BME280;1284;53.520;10.248;2023-08-17T00:17:18;101463.53;;;22.16;80.63
2549;BME280;1284;53.520;10.248;2023-08-17T00:19:44;101461.69;;;22.10;80.58
2549;BME280;1284;53.520;10.248;2023-08-17T00:22:09;101453.09;;;22.08;80.87
2549;BME280;1284;53.520;10.248;2023-08-17T00:24:35;101453.91;;;22.05;81.35
2549;BME280;1284;53.520;10.248;2023-08-17T00:27:00;101459.84;;;22.00;81.66
2549;BME280;1284;53.520;10.248;2023-08-17T00:29:26;101455.56;;;21.99;82.17
2549;BME280;1284;53.520;10.248;2023-08-17T00:31:51;101454.41;;;21.96;82.33
2549;BME280;1284;53.520;10.248;2023-08-17T00:34:18;101460.28;;;21.98;82.04
2549;BME280;1284;53.520;10.248;2023-08-17T00:36:44;101454.41;;;21.96;82.52
2549;BME280;1284;53.520;10.248;2023-08-17T00:39:09;101460.31;;;21.95;82.46
2549;BME280;1284;53.520;10.248;2023-08-17T00:41:35;101445.03;;;21.94;82.86
2549;BME280;1284;53.520;10.248;2023-08-17T00:44:00;101441.88;;;21.95;82.91
2549;BME280;1284;53.520;10.248;2023-08-17T00:46:26;101443.19;;;21.87;83.26
2549;BME280;1284;53.520;10.248;2023-08-17T00:48:53;101436.13;;;21.86;83.37
2549;BME280;1284;53.520;10.248;2023-08-17T00:51:22;101428.63;;;21.90;82.90
2549;BME280;1284;53.520;10.248;2023-08-17T00:53:50;101433.69;;;21.92;82.60
2549;BME280;1284;53.520;10.248;2023-08-17T00:56:16;101429.06;;;21.89;82.07
2549;BME280;1284;53.520;10.248;2023-08-17T00:58:42;101422.88;;;21.78;82.67
2549;BME280;1284;53.520;10.248;2023-08-17T01:01:08;101430.31;;;21.81;82.57
2549;BME280;1284;53.520;10.248;2023-08-17T01:03:35;101418.94;;;21.82;81.85
2549;BME280;1284;53.520;10.248;2023-08-17T01:06:01;101423.63;;;21.85;81.89
2549;BME280;1284;53.520;10.248;2023-08-17T01:08:29;101425.22;;;21.83;82.11
2549;BME280;1284;53.520;10.248;2023-08-17T01:11:02;101417.72;;;21.87;81.80
2549;BME280;1284;53.520;10.248;2023-08-17T01:13:38;101407.19;;;21.82;81.88
2549;BME280;1284;53.520;10.248;2023-08-17T01:16:05;101413.13;;;21.77;82.11
2549;BME280;1284;53.520;10.248;2023-08-17T01:18:35;101412.75;;;21.75;81.89
2549;BME280;1284;53.520;10.248;2023-08-17T01:21:05;101405.75;;;21.70;81.36
2549;BME280;1284;53.520;10.248;2023-08-17T01:23:32;101412.44;;;21.69;81.28
2549;BME280;1284;53.520;10.248;2023-08-17T01:25:57;101414.38;;;21.69;81.37
2549;BME280;1284;53.520;10.248;2023-08-17T01:28:24;101414.38;;;21.69;80.60
2549;BME280;1284;53.520;10.248;2023-08-17T01:30:56;101418.72;;;21.66;81.08
2549;BME280;1284;53.520;10.248;2023-08-17T01:33:44;101427.72;;;21.67;80.40
2549;BME280;1284;53.520;10.248;2023-08-17T01:38:51;101427.88;;;21.56;80.73
2549;BME280;1284;53.520;10.248;2023-08-17T01:41:19;101428.63;;;21.56;80.51
2549;BME280;1284;53.520;10.248;2023-08-17T01:43:46;101429.84;;;21.55;80.59
2549;BME280;1284;53.520;10.248;2023-08-17T01:46:17;101427.09;;;21.55;80.48
2549;BME280;1284;53.520;10.248;2023-08-17T01:48:46;101437.66;;;21.57;80.27
2549;BME280;1284;53.520;10.248;2023-08-17T01:51:17;101431.34;;;21.60;80.08
2549;BME280;1284;53.520;10.248;2023-08-17T01:53:44;101425.03;;;21.63;79.22
2549;BME280;1284;53.520;10.248;2023-08-17T01:56:10;101427.91;;;21.52;80.37
2549;BME280;1284;53.520;10.248;2023-08-17T01:58:35;101430.25;;;21.54;79.54
2549;BME280;1284;53.520;10.248;2023-08-17T02:01:01;101427.03;;;21.59;79.17
2549;BME280;1284;53.520;10.248;2023-08-17T02:03:27;101440.03;;;21.55;79.05
2549;BME280;1284;53.520;10.248;2023-08-17T02:05:57;101428.28;;;21.54;79.04
2549;BME280;1284;53.520;10.248;2023-08-17T02:08:22;101432.22;;;21.53;78.43
2549;BME280;1284;53.520;10.248;2023-08-17T02:10:48;101423.63;;;21.51;78.51
2549;BME280;1284;53.520;10.248;2023-08-17T02:13:14;101425.53;;;21.54;78.26
2549;BME280;1284;53.520;10.248;2023-08-17T02:15:39;101426.72;;;21.53;78.29
2549;BME280;1284;53.520;10.248;2023-08-17T02:18:05;101424.00;;;21.53;78.09
2549;BME280;1284;53.520;10.248;2023-08-17T02:20:31;101427.88;;;21.56;77.91
2549;BME280;1284;53.520;10.248;2023-08-17T02:22:56;101433.00;;;21.50;77.93
2549;BME280;1284;53.520;10.248;2023-08-17T02:25:22;101435.75;;;21.50;77.56
2549;BME280;1284;53.520;10.248;2023-08-17T02:27:50;101425.22;;;21.49;77.80
2549;BME280;1284;53.520;10.248;2023-08-17T02:30:16;101425.22;;;21.49;77.81
2549;BME280;1284;53.520;10.248;2023-08-17T02:32:41;101429.19;;;21.44;77.42
2549;BME280;1284;53.520;10.248;2023-08-17T02:35:07;101423.03;;;21.33;78.16
2549;BME280;1284;53.520;10.248;2023-08-17T02:37:33;101425.34;;;21.38;77.66
2549;BME280;1284;53.520;10.248;2023-08-17T02:39:58;101412.41;;;21.39;77.77
2549;BME280;1284;53.520;10.248;2023-08-17T02:42:24;101416.38;;;21.34;77.85
2549;BME280;1284;53.520;10.248;2023-08-17T02:44:49;101408.91;;;21.38;77.51
2549;BME280;1284;53.520;10.248;2023-08-17T02:47:15;101403.09;;;21.33;77.68
2549;BME280;1284;53.520;10.248;2023-08-17T02:49:40;101407.75;;;21.36;77.43
2549;BME280;1284;53.520;10.248;2023-08-17T02:52:06;101407.38;;;21.34;77.01
2549;BME280;1284;53.520;10.248;2023-08-17T02:54:31;101403.84;;;21.33;77.37
2549;BME280;1284;53.520;10.248;2023-08-17T02:56:57;101399.56;;;21.32;77.33
2549;BME280;1284;53.520;10.248;2023-08-17T02:59:23;101402.31;;;21.32;77.38
2549;BME280;1284;53.520;10.248;2023-08-17T03:01:48;101397.63;;;21.33;77.78
2549;BME280;1284;53.520;10.248;2023-08-17T03:04:14;101394.50;;;21.31;77.66
2549;BME280;1284;53.520;10.248;2023-08-17T03:06:39;101405.00;;;21.36;77.81
2549;BME280;1284;53.520;10.248;2023-08-17T03:09:05;101407.47;;;21.27;77.29
2549;BME280;1284;53.520;10.248;2023-08-17T03:11:30;101407.09;;;21.25;77.89
2549;BME280;1284;53.520;10.248;2023-08-17T03:13:56;101409.84;;;21.25;77.84
2549;BME280;1284;53.520;10.248;2023-08-17T03:16:26;101410.28;;;21.20;78.21
2549;BME280;1284;53.520;10.248;2023-08-17T03:18:52;101414.22;;;21.19;77.75
2549;BME280;1284;53.520;10.248;2023-08-17T03:21:18;101408.72;;;21.19;78.50
2549;BME280;1284;53.520;10.248;2023-08-17T03:23:45;101416.53;;;21.20;78.33
2549;BME280;1284;53.520;10.248;2023-08-17T03:26:11;101415.38;;;21.21;78.71
2549;BME280;1284;53.520;10.248;2023-08-17T03:28:37;101412.94;;;21.27;78.59
2549;BME280;1284;53.520;10.248;2023-08-17T03:31:03;101414.13;;;21.26;78.48
2549;BME280;1284;53.520;10.248;2023-08-17T03:33:29;101418.47;;;21.23;79.08
2549;BME280;1284;53.520;10.248;2023-08-17T03:35:55;101415.75;;;21.20;79.32
2549;BME280;1284;53.520;10.248;2023-08-17T03:38:20;101410.31;;;21.16;79.57
2549;BME280;1284;53.520;10.248;2023-08-17T03:40:46;101410.69;;;21.18;79.72
2549;BME280;1284;53.520;10.248;2023-08-17T03:43:13;101409.09;;;21.21;79.48
2549;BME280;1284;53.520;10.248;2023-08-17T03:45:41;101408.72;;;21.19;79.43
2549;BME280;1284;53.520;10.248;2023-08-17T03:48:06;101404.88;;;21.13;80.12
2549;BME280;1284;53.520;10.248;2023-08-17T03:50:32;101404.09;;;21.12;80.37
2549;BME280;1284;53.520;10.248;2023-08-17T03:52:57;101408.41;;;21.13;80.70
2549;BME280;1284;53.520;10.248;2023-08-17T03:55:23;101406.47;;;21.10;81.09
2549;BME280;1284;53.520;10.248;2023-08-17T03:57:48;101411.56;;;21.08;81.22
2549;BME280;1284;53.520;10.248;2023-08-17T04:00:14;101406.13;;;21.05;81.69
2549;BME280;1284;53.520;10.248;2023-08-17T04:02:39;101406.13;;;21.05;81.90
2549;BME280;1284;53.520;10.248;2023-08-17T04:05:05;101399.50;;;21.02;82.05
2549;BME280;1284;53.520;10.248;2023-08-17T04:07:31;101406.50;;;21.07;82.27
2549;BME280;1284;53.520;10.248;2023-08-17T04:09:56;101400.25;;;21.06;82.42
2549;BME280;1284;53.520;10.248;2023-08-17T04:12:23;101415.47;;;21.11;82.36
2549;BME280;1284;53.520;10.248;2023-08-17T04:14:48;101414.31;;;21.08;82.42
2549;BME280;1284;53.520;10.248;2023-08-17T04:17:14;101419.38;;;21.13;82.41
2549;BME280;1284;53.520;10.248;2023-08-17T04:19:39;101414.69;;;21.10;82.80
2549;BME280;1284;53.520;10.248;2023-08-17T04:22:07;101420.16;;;21.10;83.12
2549;BME280;1284;53.520;10.248;2023-08-17T04:24:32;101421.72;;;21.11;83.28
2549;BME280;1284;53.520;10.248;2023-08-17T04:26:58;101423.69;;;21.11;83.49
2549;BME280;1284;53.520;10.248;2023-08-17T04:29:25;101424.09;;;21.09;83.18
2549;BME280;1284;53.520;10.248;2023-08-17T04:31:51;101432.72;;;21.08;83.56
2549;BME280;1284;53.520;10.248;2023-08-17T04:34:16;101436.22;;;21.08;83.98
2549;BME280;1284;53.520;10.248;2023-08-17T04:36:45;101435.47;;;21.04;84.03
2549;BME280;1284;53.520;10.248;2023-08-17T04:39:10;101435.91;;;21.03;84.07
2549;BME280;1284;53.520;10.248;2023-08-17T04:41:36;101438.22;;;21.04;84.44
2549;BME280;1284;53.520;10.248;2023-08-17T04:44:05;101440.16;;;21.07;84.38
2549;BME280;1284;53.520;10.248;2023-08-17T04:46:30;101443.28;;;21.09;84.43
2549;BME280;1284;53.520;10.248;2023-08-17T04:48:56;101446.81;;;21.06;84.33
2549;BME280;1284;53.520;10.248;2023-08-17T04:51:21;101450.38;;;21.03;84.93
2549;BME280;1284;53.520;10.248;2023-08-17T04:53:47;101461.72;;;21.05;85.36
2549;BME280;1284;53.520;10.248;2023-08-17T04:56:12;101450.00;;;20.98;85.31
2549;BME280;1284;53.520;10.248;2023-08-17T04:58:38;101447.25;;;21.01;85.41
2549;BME280;1284;53.520;10.248;2023-08-17T05:01:04;101448.03;;;20.98;85.52
2549;BME280;1284;53.520;10.248;2023-08-17T05:03:29;101457.03;;;20.99;85.48
2549;BME280;1284;53.520;10.248;2023-08-17T05:05:56;101457.91;;;20.89;86.22
2549;BME280;1284;53.520;10.248;2023-08-17T05:08:21;101468.06;;;20.92;86.25
2549;BME280;1284;53.520;10.248;2023-08-17T05:10:48;101467.72;;;20.86;86.92
2549;BME280;1284;53.520;10.248;2023-08-17T05:13:14;101470.03;;;20.91;87.02
2549;BME280;1284;53.520;10.248;2023-08-17T05:15:39;101465.25;;;20.99;86.83
2549;BME280;1284;53.520;10.248;2023-08-17T05:18:07;101485.16;;;21.06;86.76
2549;BME280;1284;53.520;10.248;2023-08-17T05:20:33;101486.78;;;21.04;87.00
2549;BME280;1284;53.520;10.248;2023-08-17T05:22:59;101491.44;;;21.07;87.84
2549;BME280;1284;53.520;10.248;2023-08-17T05:25:24;101495.00;;;21.04;87.87
2549;BME280;1284;53.520;10.248;2023-08-17T05:27:51;101495.38;;;21.06;88.60
2549;BME280;1284;53.520;10.248;2023-08-17T05:30:17;101491.88;;;20.98;89.54
2549;BME280;1284;53.520;10.248;2023-08-17T05:32:43;101502.81;;;20.98;90.10
2549;BME280;1284;53.520;10.248;2023-08-17T05:35:08;101500.53;;;20.93;90.71
2549;BME280;1284;53.520;10.248;2023-08-17T05:37:35;101504.47;;;20.92;91.47
2549;BME280;1284;53.520;10.248;2023-08-17T05:40:00;101511.56;;;20.86;91.40
2549;BME280;1284;53.520;10.248;2023-08-17T05:42:26;101509.97;;;20.85;92.27
2549;BME280;1284;53.520;10.248;2023-08-17T05:44:51;101515.03;;;20.87;92.74
2549;BME280;1284;53.520;10.248;2023-08-17T05:47:17;101515.47;;;20.85;92.99
2549;BME280;1284;53.520;10.248;2023-08-17T05:49:44;101503.03;;;20.74;93.72
2549;BME280;1284;53.520;10.248;2023-08-17T05:52:10;101504.19;;;20.76;93.75
2549;BME280;1284;53.520;10.248;2023-08-17T05:54:35;101505.34;;;20.75;94.26
2549;BME280;1284;53.520;10.248;2023-08-17T05:57:02;101506.19;;;20.72;94.88
2549;BME280;1284;53.520;10.248;2023-08-17T05:59:28;101506.59;;;20.71;95.13
2549;BME280;1284;53.520;10.248;2023-08-17T06:01:54;101502.66;;;20.72;95.27
2549;BME280;1284;53.520;10.248;2023-08-17T06:04:19;101502.69;;;20.68;95.40
2549;BME280;1284;53.520;10.248;2023-08-17T06:06:46;101505.38;;;20.72;95.07
2549;BME280;1284;53.520;10.248;2023-08-17T06:09:11;101500.00;;;20.61;95.35
2549;BME280;1284;53.520;10.248;2023-08-17T06:11:37;101496.03;;;20.65;95.40
2549;BME280;1284;53.520;10.248;2023-08-17T06:14:05;101491.34;;;20.66;95.49
2549;BME280;1284;53.520;10.248;2023-08-17T06:16:31;101489.38;;;20.70;94.96
2549;BME280;1284;53.520;10.248;2023-08-17T06:18:57;101495.66;;;20.67;94.62
2549;BME280;1284;53.520;10.248;2023-08-17T06:21:22;101496.44;;;20.64;95.28
2549;BME280;1284;53.520;10.248;2023-08-17T06:23:48;101502.75;;;20.61;95.65
2549;BME280;1284;53.520;10.248;2023-08-17T06:26:13;101503.13;;;20.63;95.16
2549;BME280;1284;53.520;10.248;2023-08-17T06:28:39;101499.94;;;20.68;94.63
2549;BME280;1284;53.520;10.248;2023-08-17T06:31:04;101493.72;;;20.64;93.93
2549;BME280;1284;53.520;10.248;2023-08-17T06:33:30;101503.19;;;20.52;94.02
2549;BME280;1284;53.520;10.248;2023-08-17T06:35:55;101499.38;;;20.36;94.51
2549;BME280;1284;53.520;10.248;2023-08-17T06:38:20;101493.09;;;20.39;94.64
2549;BME280;1284;53.520;10.248;2023-08-17T06:40:46;101493.47;;;20.41;94.63
2549;BME280;1284;53.520;10.248;2023-08-17T06:43:11;101495.16;;;20.24;95.44
2549;BME280;1284;53.520;10.248;2023-08-17T06:45:37;101482.97;;;20.36;95.29
2549;BME280;1284;53.520;10.248;2023-08-17T06:48:03;101478.34;;;20.15;95.15
2549;BME280;1284;53.520;10.248;2023-08-17T06:50:28;101487.72;;;20.25;95.10
2549;BME280;1284;53.520;10.248;2023-08-17T06:52:54;101491.22;;;20.32;95.24
2549;BME280;1284;53.520;10.248;2023-08-17T06:55:19;101494.28;;;20.38;94.61
2549;BME280;1284;53.520;10.248;2023-08-17T06:57:46;101493.50;;;20.37;94.22
2549;BME280;1284;53.520;10.248;2023-08-17T07:00:12;101498.19;;;20.37;94.08
2549;BME280;1284;53.520;10.248;2023-08-17T07:02:38;101496.34;;;20.20;92.92
2549;BME280;1284;53.520;10.248;2023-08-17T07:05:04;101490.13;;;20.09;92.41
2549;BME280;1284;53.520;10.248;2023-08-17T07:07:30;101491.72;;;20.03;91.29
2549;BME280;1284;53.520;10.248;2023-08-17T07:09:59;101484.78;;;19.80;92.09
2549;BME280;1284;53.520;10.248;2023-08-17T07:12:24;101474.59;;;19.92;91.71
2549;BME280;1284;53.520;10.248;2023-08-17T07:14:50;101474.16;;;19.97;91.72
2549;BME280;1284;53.520;10.248;2023-08-17T07:17:15;101462.03;;;20.01;91.18
2549;BME280;1284;53.520;10.248;2023-08-17T07:19:41;101463.19;;;20.00;91.57
2549;BME280;1284;53.520;10.248;2023-08-17T07:22:06;101458.13;;;20.02;91.04
2549;BME280;1284;53.520;10.248;2023-08-17T07:24:32;101461.19;;;20.08;90.68
2549;BME280;1284;53.520;10.248;2023-08-17T07:26:57;101466.69;;;20.04;90.20
2549;BME280;1284;53.520;10.248;2023-08-17T07:29:23;101464.41;;;19.92;90.24
2549;BME280;1284;53.520;10.248;2023-08-17T07:31:48;101469.94;;;19.82;90.24
2549;BME280;1284;53.520;10.248;2023-08-17T07:34:14;101468.34;;;19.88;90.29
2549;BME280;1284;53.520;10.248;2023-08-17T07:36:39;101462.47;;;19.89;90.36
2549;BME280;1284;53.520;10.248;2023-08-17T07:39:04;101471.09;;;19.88;89.89
2549;BME280;1284;53.520;10.248;2023-08-17T07:41:30;101472.63;;;19.89;89.76
2549;BME280;1284;53.520;10.248;2023-08-17T07:43:55;101473.03;;;19.87;90.08
2549;BME280;1284;53.520;10.248;2023-08-17T07:46:21;101469.13;;;19.92;90.19
2549;BME280;1284;53.520;10.248;2023-08-17T07:48:46;101473.03;;;19.91;89.70
2549;BME280;1284;53.520;10.248;2023-08-17T07:51:13;101474.22;;;19.90;89.88
2549;BME280;1284;53.520;10.248;2023-08-17T07:53:39;101472.63;;;19.89;90.15
2549;BME280;1284;53.520;10.248;2023-08-17T07:56:04;101472.22;;;19.90;90.62
2549;BME280;1284;53.520;10.248;2023-08-17T07:58:30;101473.78;;;19.95;91.16
2549;BME280;1284;53.520;10.248;2023-08-17T08:00:56;101473.75;;;19.98;91.20
2549;BME280;1284;53.520;10.248;2023-08-17T08:03:22;101470.63;;;20.00;91.52
2549;BME280;1284;53.520;10.248;2023-08-17T08:05:47;101483.09;;;20.04;91.92
2549;BME280;1284;53.520;10.248;2023-08-17T08:08:13;101481.53;;;20.07;91.84
2549;BME280;1284;53.520;10.248;2023-08-17T08:10:40;101480.72;;;20.10;92.13
2549;BME280;1284;53.520;10.248;2023-08-17T08:13:06;101485.41;;;20.09;91.78
2549;BME280;1284;53.520;10.248;2023-08-17T08:15:33;101489.38;;;20.05;91.16
2549;BME280;1284;53.520;10.248;2023-08-17T08:17:58;101486.63;;;20.05;90.74
2549;BME280;1284;53.520;10.248;2023-08-17T08:20:24;101487.78;;;20.04;90.80
2549;BME280;1284;53.520;10.248;2023-08-17T08:22:49;101482.78;;;19.95;89.93
2549;BME280;1284;53.520;10.248;2023-08-17T08:25:15;101487.41;;;20.02;90.61
2549;BME280;1284;53.520;10.248;2023-08-17T08:27:40;101497.16;;;20.10;90.24
2549;BME280;1284;53.520;10.248;2023-08-17T08:30:06;101496.34;;;20.09;89.91
2549;BME280;1284;53.520;10.248;2023-08-17T08:32:32;101494.00;;;20.15;90.12
2549;BME280;1284;53.520;10.248;2023-08-17T08:34:57;101492.03;;;20.22;90.38
2549;BME280;1284;53.520;10.248;2023-08-17T08:40:11;101488.09;;;20.27;90.00
2549;BME280;1284;53.520;10.248;2023-08-17T08:42:38;101488.09;;;20.27;90.60
2549;BME280;1284;53.520;10.248;2023-08-17T08:45:04;101495.09;;;20.35;91.18
2549;BME280;1284;53.520;10.248;2023-08-17T08:47:31;101488.38;;;20.43;90.57
2549;BME280;1284;53.520;10.248;2023-08-17T08:50:01;101484.09;;;20.42;90.35
2549;BME280;1284;53.520;10.248;2023-08-17T08:52:50;101488.78;;;20.41;89.70
2549;BME280;1284;53.520;10.248;2023-08-17T08:55:18;101491.13;;;20.43;89.85
2549;BME280;1284;53.520;10.248;2023-08-17T08:57:46;101482.53;;;20.41;89.82
2549;BME280;1284;53.520;10.248;2023-08-17T09:00:14;101482.91;;;20.43;90.18
2549;BME280;1284;53.520;10.248;2023-08-17T09:02:41;101481.75;;;20.44;90.12
2549;BME280;1284;53.520;10.248;2023-08-17T09:05:09;101487.59;;;20.42;89.30
2549;BME280;1284;53.520;10.248;2023-08-17T09:07:37;101490.78;;;20.37;89.79
2549;BME280;1284;53.520;10.248;2023-08-17T09:10:03;101486.84;;;20.42;89.71
2549;BME280;1284;53.520;10.248;2023-08-17T09:12:29;101484.88;;;20.46;89.96
2549;BME280;1284;53.520;10.248;2023-08-17T09:14:55;101485.22;;;20.48;89.90
2549;BME280;1284;53.520;10.248;2023-08-17T09:17:25;101480.19;;;20.43;89.40
2549;BME280;1284;53.520;10.248;2023-08-17T09:19:50;101486.47;;;20.40;89.64
2549;BME280;1284;53.520;10.248;2023-08-17T09:25:02;101476.00;;;20.24;90.00
2549;BME280;1284;53.520;10.248;2023-08-17T09:27:28;101477.19;;;20.20;90.03
2549;BME280;1284;53.520;10.248;2023-08-17T09:30:01;101476.41;;;20.16;90.28
2549;BME280;1284;53.520;10.248;2023-08-17T09:32:30;101465.91;;;20.11;90.49
2549;BME280;1284;53.520;10.248;2023-08-17T09:34:56;101462.78;;;20.09;91.08
2549;BME280;1284;53.520;10.248;2023-08-17T09:37:22;101451.09;;;20.01;91.23
2549;BME280;1284;53.520;10.248;2023-08-17T09:39:47;101442.56;;;19.89;91.67
2549;BME280;1284;53.520;10.248;2023-08-17T09:42:14;101435.13;;;19.89;92.26
2549;BME280;1284;53.520;10.248;2023-08-17T09:44:42;101440.22;;;19.87;92.77
2549;BME280;1284;53.520;10.248;2023-08-17T09:47:07;101441.78;;;19.85;92.60
2549;BME280;1284;53.520;10.248;2023-08-17T09:49:33;101441.78;;;19.85;92.16
2549;BME280;1284;53.520;10.248;2023-08-17T09:52:01;101443.38;;;19.82;91.36
2549;BME280;1284;53.520;10.248;2023-08-17T09:54:30;101448.09;;;19.71;91.64
2549;BME280;1284;53.520;10.248;2023-08-17T09:56:57;101448.94;;;19.64;91.45
2549;BME280;1284;53.520;10.248;2023-08-17T09:59:23;101450.91;;;19.53;91.11
2549;BME280;1284;53.520;10.248;2023-08-17T10:01:50;101448.97;;;19.54;90.95
2549;BME280;1284;53.520;10.248;2023-08-17T10:04:21;101463.00;;;19.56;90.68
2549;BME280;1284;53.520;10.248;2023-08-17T10:06:51;101450.50;;;19.51;90.09
2549;BME280;1284;53.520;10.248;2023-08-17T10:09:24;101445.50;;;19.43;89.27
2549;BME280;1284;53.520;10.248;2023-08-17T10:11:52;101446.69;;;19.35;89.82
2549;BME280;1284;53.520;10.248;2023-08-17T10:14:26;101447.06;;;19.30;90.51
2549;BME280;1284;53.520;10.248;2023-08-17T10:16:58;101447.41;;;19.32;91.51
2549;BME280;1284;53.520;10.248;2023-08-17T10:19:37;101442.00;;;19.35;90.57
2549;BME280;1284;53.520;10.248;2023-08-17T10:22:16;101449.78;;;19.37;90.73
2549;BME280;1284;53.520;10.248;2023-08-17T10:24:43;101456.81;;;19.34;90.87
2549;BME280;1284;53.520;10.248;2023-08-17T10:27:10;101456.03;;;19.37;92.00
2549;BME280;1284;53.520;10.248;2023-08-17T10:29:36;101445.88;;;19.38;91.96
2549;BME280;1284;53.520;10.248;2023-08-17T10:32:05;101444.31;;;19.40;92.71
2549;BME280;1284;53.520;10.248;2023-08-17T10:34:30;101456.81;;;19.34;92.90
2549;BME280;1284;53.520;10.248;2023-08-17T10:36:57;101458.00;;;19.30;92.71
2549;BME280;1284;53.520;10.248;2023-08-17T10:39:28;101452.91;;;19.28;93.14
2549;BME280;1284;53.520;10.248;2023-08-17T10:41:55;101456.03;;;19.23;93.38
2549;BME280;1284;53.520;10.248;2023-08-17T10:47:21;101457.19;;;19.22;93.84
2549;BME280;1284;53.520;10.248;2023-08-17T10:49:57;101448.63;;;19.27;93.99
2549;BME280;1284;53.520;10.248;2023-08-17T10:52:31;101449.78;;;19.30;93.61
2549;BME280;1284;53.520;10.248;2023-08-17T10:55:03;101462.28;;;19.34;94.10
2549;BME280;1284;53.520;10.248;2023-08-17T10:57:32;101465.78;;;19.42;93.78
2549;BME280;1284;53.520;10.248;2023-08-17T11:02:39;101477.50;;;19.42;93.71
2549;BME280;1284;53.520;10.248;2023-08-17T11:05:05;101486.47;;;19.46;93.73
2549;BME280;1284;53.520;10.248;2023-08-17T11:07:42;101489.94;;;19.54;93.41
2549;BME280;1284;53.520;10.248;2023-08-17T11:10:27;101476.69;;;19.49;93.97
2549;BME280;1284;53.520;10.248;2023-08-17T11:12:57;101470.44;;;19.52;94.68
2549;BME280;1284;53.520;10.248;2023-08-17T11:15:40;101470.81;;;19.57;95.07
2549;BME280;1284;53.520;10.248;2023-08-17T11:18:10;101471.56;;;19.65;94.53
2549;BME280;1284;53.520;10.248;2023-08-17T11:20:38;101447.34;;;19.67;94.34
2549;BME280;1284;53.520;10.248;2023-08-17T11:23:05;101434.81;;;19.73;94.99
2549;BME280;1284;53.520;10.248;2023-08-17T11:25:31;101437.53;;;19.80;94.90
2549;BME280;1284;53.520;10.248;2023-08-17T11:27:58;101445.72;;;19.76;94.60
2549;BME280;1284;53.520;10.248;2023-08-17T11:30:24;101440.25;;;19.76;94.17
2549;BME280;1284;53.520;10.248;2023-08-17T11:32:51;101444.16;;;19.79;95.32
2549;BME280;1284;53.520;10.248;2023-08-17T11:35:17;101447.25;;;19.85;95.33
2549;BME280;1284;53.520;10.248;2023-08-17T11:37:43;101458.19;;;19.92;95.16
2549;BME280;1284;53.520;10.248;2023-08-17T11:40:12;101472.25;;;19.94;94.84
2549;BME280;1284;53.520;10.248;2023-08-17T11:42:38;101469.09;;;19.95;94.71
2549;BME280;1284;53.520;10.248;2023-08-17T11:45:05;101472.97;;;20.05;94.74
2549;BME280;1284;53.520;10.248;2023-08-17T11:47:30;101480.72;;;20.10;94.75
2549;BME280;1284;53.520;10.248;2023-08-17T11:50:01;101476.03;;;20.14;95.17
2549;BME280;1284;53.520;10.248;2023-08-17T11:52:27;101481.50;;;20.21;94.98
2549;BME280;1284;53.520;10.248;2023-08-17T11:54:56;101488.53;;;20.22;95.07
2549;BME280;1284;53.520;10.248;2023-08-17T11:57:22;101477.97;;;20.24;95.53
2549;BME280;1284;53.520;10.248;2023-08-17T11:59:47;101468.16;;;20.30;95.94
2549;BME280;1284;53.520;10.248;2023-08-17T12:02:13;101468.94;;;20.30;95.85
2549;BME280;1284;53.520;10.248;2023-08-17T12:04:38;101475.97;;;20.28;95.86
2549;BME280;1284;53.520;10.248;2023-08-17T12:07:05;101472.06;;;20.25;95.64
2549;BME280;1284;53.520;10.248;2023-08-17T12:09:33;101482.22;;;20.25;95.93
2549;BME280;1284;53.520;10.248;2023-08-17T12:12:00;101465.03;;;20.28;95.77
2549;BME280;1284;53.520;10.248;2023-08-17T12:14:27;101470.09;;;20.29;96.20
2549;BME280;1284;53.520;10.248;2023-08-17T12:16:53;101461.47;;;20.34;96.31
2549;BME280;1284;53.520;10.248;2023-08-17T12:19:20;101470.03;;;20.36;96.48
2549;BME280;1284;53.520;10.248;2023-08-17T12:21:48;101479.41;;;20.42;96.45
2549;BME280;1284;53.520;10.248;2023-08-17T12:24:14;101475.91;;;20.38;96.58
2549;BME280;1284;53.520;10.248;2023-08-17T12:26:46;101468.06;;;20.44;96.18
2549;BME280;1284;53.520;10.248;2023-08-17T12:29:12;101463.34;;;20.44;96.57
2549;BME280;1284;53.520;10.248;2023-08-17T12:31:38;101459.41;;;20.49;97.09
2549;BME280;1284;53.520;10.248;2023-08-17T12:36:31;101453.88;;;20.56;97.05
2549;BME280;1284;53.520;10.248;2023-08-17T12:38:57;101445.34;;;20.47;97.81
2549;BME280;1284;53.520;10.248;2023-08-17T12:43:48;101452.75;;;20.50;98.02
2549;BME280;1284;53.520;10.248;2023-08-17T12:46:13;101456.31;;;20.47;98.47
2549;BME280;1284;53.520;10.248;2023-08-17T12:48:39;101444.94;;;20.48;99.15
2549;BME280;1284;53.520;10.248;2023-08-17T12:53:30;101451.50;;;20.58;99.01
2549;BME280;1284;53.520;10.248;2023-08-17T12:55:55;101439.03;;;20.57;99.29
2549;BME280;1284;53.520;10.248;2023-08-17T12:58:21;101443.31;;;20.58;99.50
2549;BME280;1284;53.520;10.248;2023-08-17T13:00:47;101441.72;;;20.60;99.90
2549;BME280;1284;53.520;10.248;2023-08-17T13:03:15;101442.94;;;20.56;100.00
2549;BME280;1284;53.520;10.248;2023-08-17T13:05:41;101448.41;;;20.56;99.77
2549;BME280;1284;53.520;10.248;2023-08-17T13:08:06;101452.66;;;20.64;99.72
2549;BME280;1284;53.520;10.248;2023-08-17T13:10:33;101449.88;;;20.71;99.50
2549;BME280;1284;53.520;10.248;2023-08-17T13:12:58;101449.78;;;20.78;99.62
2549;BME280;1284;53.520;10.248;2023-08-17T13:15:24;101459.13;;;20.84;99.42
2549;BME280;1284;53.520;10.248;2023-08-17T13:17:50;101454.00;;;20.90;99.03
2549;BME280;1284;53.520;10.248;2023-08-17T13:20:16;101452.09;;;20.83;97.25